createdAt,value
2022-12-25T00:02:22.890Z,9.77
2022-12-25T00:04:49.451Z,9.83
2022-12-25T00:07:16.140Z,9.83
2022-12-25T00:09:42.742Z,9.98
2022-12-25T00:12:09.170Z,10.04
2022-12-25T00:14:35.604Z,9.89
2022-12-25T00:17:02.047Z,9.27
2022-12-25T00:19:28.650Z,9.22
2022-12-25T00:21:55.089Z,9.69
2022-12-25T00:24:21.550Z,9.77
2022-12-25T00:26:48.011Z,10.08
2022-12-25T00:29:14.445Z,10.07
2022-12-25T00:31:41.050Z,10.09
2022-12-25T00:34:08.659Z,9.93
2022-12-25T00:36:41.465Z,9.68
2022-12-25T00:39:08.641Z,9.99
2022-12-25T00:41:53.845Z,10.03
2022-12-25T00:44:20.284Z,10.11
2022-12-25T00:46:46.847Z,10.00
2022-12-25T00:49:13.631Z,10.20
2022-12-25T00:51:40.109Z,9.86
2022-12-25T00:54:06.638Z,10.04
2022-12-25T00:56:33.073Z,10.16
2022-12-25T00:58:59.621Z,9.94
2022-12-25T01:01:26.189Z,10.04
2022-12-25T01:03:52.788Z,10.00
2022-12-25T01:06:19.166Z,9.99
2022-12-25T01:09:04.341Z,9.98
2022-12-25T01:11:30.943Z,10.07
2022-12-25T01:13:57.364Z,10.07
2022-12-25T01:16:23.968Z,10.07
2022-12-25T01:18:50.666Z,9.95
2022-12-25T01:21:18.020Z,10.15
2022-12-25T01:23:44.625Z,10.24
2022-12-25T01:26:12.192Z,10.04
2022-12-25T01:28:39.185Z,9.89
2022-12-25T01:31:08.217Z,9.79
2022-12-25T01:33:34.682Z,9.91
2022-12-25T01:36:01.104Z,10.00
2022-12-25T01:38:27.534Z,10.03
2022-12-25T01:40:53.976Z,10.01
2022-12-25T01:43:20.409Z,10.05
2022-12-25T01:45:48.440Z,9.98
2022-12-25T01:48:17.880Z,9.99
2022-12-25T01:50:51.043Z,9.89
2022-12-25T01:53:17.575Z,10.03
2022-12-25T01:55:45.258Z,9.87
2022-12-25T01:58:11.928Z,9.77
2022-12-25T02:00:38.576Z,9.75
2022-12-25T02:03:05.548Z,9.74
2022-12-25T02:05:34.193Z,9.78
2022-12-25T02:08:02.574Z,9.87
2022-12-25T02:10:28.971Z,10.01
2022-12-25T02:12:55.624Z,9.95
2022-12-25T02:15:25.504Z,10.03
2022-12-25T02:18:05.752Z,9.90
2022-12-25T02:20:43.544Z,10.02
2022-12-25T02:23:18.990Z,10.12
2022-12-25T02:25:48.666Z,10.22
2022-12-25T02:28:37.903Z,10.26
2022-12-25T02:31:10.592Z,9.82
2022-12-25T02:34:01.286Z,9.85
2022-12-25T02:36:29.981Z,9.55
2022-12-25T02:39:17.201Z,9.54
2022-12-25T02:41:46.115Z,9.79
2022-12-25T02:44:33.958Z,9.97
2022-12-25T02:47:21.381Z,9.94
2022-12-25T02:50:07.088Z,9.87
2022-12-25T02:52:52.489Z,9.67
2022-12-25T02:55:40.986Z,9.57
2022-12-25T02:58:28.537Z,9.59
2022-12-25T03:01:23.112Z,9.89
2022-12-25T03:04:09.523Z,9.91
2022-12-25T03:06:43.171Z,9.93
2022-12-25T03:09:31.173Z,9.95
2022-12-25T03:12:01.021Z,9.73
2022-12-25T03:14:46.909Z,9.86
2022-12-25T03:17:13.381Z,9.55
2022-12-25T03:19:58.657Z,9.69
2022-12-25T03:22:48.564Z,9.87
2022-12-25T03:25:34.464Z,9.79
2022-12-25T03:28:01.107Z,9.40
2022-12-25T03:30:48.660Z,9.65
2022-12-25T03:33:44.592Z,9.84
2022-12-25T03:36:28.249Z,8.93
2022-12-25T03:39:19.214Z,8.74
2022-12-25T03:42:06.295Z,8.81
2022-12-25T03:44:53.660Z,8.86
2022-12-25T03:47:37.528Z,8.95
2022-12-25T03:50:34.288Z,9.18
2022-12-25T03:53:21.558Z,9.46
2022-12-25T03:56:07.249Z,9.70
2022-12-25T03:58:52.147Z,9.59
2022-12-25T04:01:37.394Z,9.50
2022-12-25T04:04:22.596Z,9.26
2022-12-25T04:07:07.937Z,9.46
2022-12-25T04:09:53.428Z,9.53
2022-12-25T04:12:38.589Z,9.82
2022-12-25T04:15:23.540Z,9.77
2022-12-25T04:18:10.721Z,9.78
2022-12-25T04:20:55.871Z,9.55
2022-12-25T04:23:41.309Z,9.67
2022-12-25T04:26:26.566Z,9.76
2022-12-25T04:29:11.846Z,9.71
2022-12-25T04:31:57.166Z,9.86
2022-12-25T04:34:42.153Z,9.84
2022-12-25T04:37:08.591Z,9.87
2022-12-25T04:39:35.019Z,9.88
2022-12-25T04:42:01.522Z,9.82
2022-12-25T04:44:28.044Z,9.84
2022-12-25T04:46:54.597Z,9.98
2022-12-25T04:49:21.095Z,10.10
2022-12-25T04:51:47.610Z,10.00
2022-12-25T04:54:14.035Z,9.84
2022-12-25T04:56:45.586Z,10.00
2022-12-25T04:59:12.744Z,9.82
2022-12-25T05:01:39.200Z,9.67
2022-12-25T05:04:05.721Z,9.76
2022-12-25T05:06:32.118Z,10.06
2022-12-25T05:08:58.537Z,9.62
2022-12-25T05:11:24.967Z,9.68
2022-12-25T05:13:51.449Z,9.64
2022-12-25T05:16:19.183Z,9.86
2022-12-25T05:18:47.812Z,10.06
2022-12-25T05:21:14.367Z,10.07
2022-12-25T05:23:48.335Z,10.01
2022-12-25T05:26:16.152Z,9.77
2022-12-25T05:28:42.946Z,9.76
2022-12-25T05:31:09.513Z,9.58
2022-12-25T05:33:36.101Z,9.77
2022-12-25T05:36:06.599Z,9.80
2022-12-25T05:38:33.127Z,9.81
2022-12-25T05:40:59.878Z,9.83
2022-12-25T05:43:26.750Z,9.71
2022-12-25T05:45:53.173Z,9.78
2022-12-25T05:48:19.963Z,9.73
2022-12-25T05:50:46.778Z,9.74
2022-12-25T05:53:14.421Z,9.90
2022-12-25T05:55:46.297Z,9.63
2022-12-25T05:58:13.667Z,9.55
2022-12-25T06:00:40.764Z,9.83
2022-12-25T06:03:07.309Z,10.04
2022-12-25T06:05:33.769Z,9.76
2022-12-25T06:08:00.171Z,9.60
2022-12-25T06:10:26.856Z,9.57
2022-12-25T06:12:54.311Z,9.67
2022-12-25T06:15:20.796Z,9.72
2022-12-25T06:17:47.238Z,9.53
2022-12-25T06:20:13.711Z,9.78
2022-12-25T06:22:40.132Z,9.55
2022-12-25T06:25:06.739Z,9.72
2022-12-25T06:27:33.239Z,9.50
2022-12-25T06:29:59.684Z,9.40
2022-12-25T06:32:26.123Z,9.62
2022-12-25T06:34:52.588Z,9.50
2022-12-25T06:37:19.618Z,9.58
2022-12-25T06:39:46.621Z,9.55
2022-12-25T06:42:13.039Z,9.64
2022-12-25T06:44:39.574Z,9.86
2022-12-25T06:47:05.997Z,9.84
2022-12-25T06:49:32.405Z,9.93
2022-12-25T06:51:58.809Z,9.76
2022-12-25T06:54:25.184Z,9.63
2022-12-25T06:56:51.665Z,9.65
2022-12-25T06:59:18.146Z,9.85
2022-12-25T07:01:46.516Z,9.93
2022-12-25T07:04:18.923Z,9.58
2022-12-25T07:06:45.360Z,9.69
2022-12-25T07:09:11.846Z,9.57
2022-12-25T07:11:40.085Z,9.78
2022-12-25T07:14:06.577Z,9.75
2022-12-25T07:16:33.043Z,9.58
2022-12-25T07:19:01.193Z,9.63
2022-12-25T07:21:27.598Z,9.47
2022-12-25T07:23:54.033Z,9.63
2022-12-25T07:26:20.941Z,9.54
2022-12-25T07:28:47.350Z,9.53
2022-12-25T07:31:15.385Z,9.29
2022-12-25T07:33:45.162Z,9.25
2022-12-25T07:36:12.815Z,9.54
2022-12-25T07:38:40.245Z,9.18
2022-12-25T07:41:13.288Z,9.28
2022-12-25T07:43:40.104Z,9.29
2022-12-25T07:46:06.677Z,9.63
2022-12-25T07:48:33.482Z,9.42
2022-12-25T07:51:00.834Z,9.22
2022-12-25T07:53:27.935Z,9.14
2022-12-25T07:56:01.735Z,9.39
2022-12-25T07:58:28.604Z,9.05
2022-12-25T08:00:55.552Z,8.96
2022-12-25T08:03:22.201Z,9.42
2022-12-25T08:05:52.000Z,8.93
2022-12-25T08:08:18.879Z,9.13
2022-12-25T08:10:46.398Z,9.42
2022-12-25T08:13:14.714Z,9.58
2022-12-25T08:15:42.013Z,9.61
2022-12-25T08:18:08.816Z,9.67
2022-12-25T08:20:35.635Z,9.46
2022-12-25T08:23:02.419Z,9.52
2022-12-25T08:25:29.008Z,9.72
2022-12-25T08:27:55.536Z,9.71
2022-12-25T08:30:22.069Z,9.80
2022-12-25T08:32:48.894Z,9.90
2022-12-25T08:35:15.303Z,9.78
2022-12-25T08:37:41.802Z,9.72
2022-12-25T08:40:08.513Z,9.67
2022-12-25T08:42:34.928Z,9.65
2022-12-25T08:45:01.344Z,9.73
2022-12-25T08:47:27.760Z,9.76
2022-12-25T08:49:54.160Z,9.69
2022-12-25T08:52:20.752Z,9.66
2022-12-25T08:54:47.276Z,9.74
2022-12-25T08:57:13.656Z,9.89
2022-12-25T08:59:40.068Z,9.92
2022-12-25T09:02:06.658Z,9.87
2022-12-25T09:04:33.136Z,9.83
2022-12-25T09:06:59.537Z,9.85
2022-12-25T09:09:27.449Z,9.85
2022-12-25T09:11:53.980Z,9.99
2022-12-25T09:14:20.878Z,10.06
2022-12-25T09:16:49.585Z,10.15
2022-12-25T09:19:16.087Z,10.20
2022-12-25T09:21:42.456Z,10.53
2022-12-25T09:24:08.883Z,10.66
2022-12-25T09:26:35.314Z,10.85
2022-12-25T09:29:01.752Z,10.86
2022-12-25T09:31:28.223Z,10.97
2022-12-25T09:33:56.557Z,10.98
2022-12-25T09:36:23.635Z,11.02
2022-12-25T09:38:50.335Z,11.18
2022-12-25T09:41:20.731Z,11.25
2022-12-25T09:43:49.977Z,11.34
2022-12-25T09:46:21.957Z,11.48
2022-12-25T09:48:57.018Z,11.65
2022-12-25T09:51:23.801Z,11.55
2022-12-25T09:53:53.493Z,11.60
2022-12-25T09:56:25.822Z,11.55
2022-12-25T09:58:52.981Z,11.49
2022-12-25T10:01:24.352Z,11.74
2022-12-25T10:04:11.146Z,11.81
2022-12-25T10:06:40.612Z,12.11
2022-12-25T10:09:13.603Z,12.21
2022-12-25T10:11:58.432Z,12.47
2022-12-25T10:14:43.822Z,12.32
2022-12-25T10:17:22.619Z,12.42
2022-12-25T10:19:49.081Z,12.42
2022-12-25T10:22:34.545Z,12.48
2022-12-25T10:25:02.387Z,12.66
2022-12-25T10:27:31.442Z,12.63
2022-12-25T10:29:58.643Z,12.57
2022-12-25T10:32:25.090Z,12.88
2022-12-25T10:34:51.530Z,12.71
2022-12-25T10:37:17.905Z,12.77
2022-12-25T10:39:46.919Z,12.87
2022-12-25T10:42:35.035Z,12.99
2022-12-25T10:45:03.399Z,13.05
2022-12-25T10:47:33.691Z,13.13
2022-12-25T10:50:02.052Z,13.25
2022-12-25T10:52:29.156Z,13.32
2022-12-25T10:54:56.033Z,13.44
2022-12-25T10:57:23.583Z,13.53
2022-12-25T10:59:51.136Z,13.59
2022-12-25T11:02:23.623Z,13.64
2022-12-25T11:04:51.278Z,13.61
2022-12-25T11:07:17.643Z,13.66
2022-12-25T11:10:04.750Z,13.64
2022-12-25T11:12:35.173Z,13.59
2022-12-25T11:15:07.016Z,13.68
2022-12-25T11:17:35.427Z,13.59
2022-12-25T11:20:02.288Z,13.56
2022-12-25T11:22:29.331Z,13.71
2022-12-25T11:24:55.911Z,13.80
2022-12-25T11:27:26.844Z,13.56
2022-12-25T11:29:56.104Z,13.63
2022-12-25T11:32:25.151Z,13.58
2022-12-25T11:34:53.261Z,13.80
2022-12-25T11:37:38.556Z,13.94
2022-12-25T11:40:08.639Z,13.94
2022-12-25T11:42:37.079Z,14.06
2022-12-25T11:45:03.803Z,14.14
2022-12-25T11:47:33.251Z,14.32
2022-12-25T11:50:02.766Z,14.32
2022-12-25T11:52:31.772Z,14.27
2022-12-25T11:55:03.439Z,14.30
2022-12-25T11:57:31.136Z,14.23
2022-12-25T12:00:10.126Z,14.33
2022-12-25T12:02:44.274Z,14.63
2022-12-25T12:05:17.239Z,14.83
2022-12-25T12:07:50.984Z,14.80
2022-12-25T12:10:40.857Z,14.76
2022-12-25T12:13:18.380Z,14.62
2022-12-25T12:15:46.256Z,14.54
2022-12-25T12:18:28.000Z,14.71
2022-12-25T12:21:07.016Z,14.57
2022-12-25T12:23:49.169Z,14.76
2022-12-25T12:26:22.082Z,14.78
2022-12-25T12:28:49.600Z,14.65
2022-12-25T12:31:16.493Z,14.89
2022-12-25T12:34:03.467Z,14.87
2022-12-25T12:36:35.989Z,14.89
2022-12-25T12:39:03.484Z,14.84
2022-12-25T12:41:45.057Z,14.90
2022-12-25T12:44:12.366Z,14.98
2022-12-25T12:46:40.282Z,15.14
2022-12-25T12:49:09.366Z,15.14
2022-12-25T12:51:36.958Z,15.37
2022-12-25T12:54:18.202Z,15.39
2022-12-25T12:56:57.017Z,15.24
2022-12-25T12:59:24.236Z,15.19
2022-12-25T13:02:07.062Z,15.14
2022-12-25T13:04:50.368Z,15.12
2022-12-25T13:07:27.758Z,15.02
2022-12-25T13:10:02.725Z,14.95
2022-12-25T13:12:29.308Z,15.08
2022-12-25T13:14:55.886Z,15.12
2022-12-25T13:17:24.602Z,15.00
2022-12-25T13:19:54.630Z,15.10
2022-12-25T13:22:30.169Z,15.07
2022-12-25T13:24:57.836Z,14.93
2022-12-25T13:27:25.912Z,15.02
2022-12-25T13:29:53.516Z,15.08
2022-12-25T13:32:28.209Z,14.97
2022-12-25T13:34:54.724Z,15.07
2022-12-25T13:37:23.084Z,15.20
2022-12-25T13:39:54.616Z,15.23
2022-12-25T13:42:22.567Z,14.93
2022-12-25T13:44:54.439Z,14.90
2022-12-25T13:47:31.005Z,14.86
2022-12-25T13:49:59.188Z,15.00
2022-12-25T13:52:33.112Z,14.92
2022-12-25T13:55:01.586Z,15.01
2022-12-25T13:57:30.521Z,15.02
2022-12-25T13:59:57.355Z,15.08
2022-12-25T14:02:27.824Z,15.13
2022-12-25T14:04:54.489Z,15.11
2022-12-25T14:07:24.019Z,15.11
2022-12-25T14:09:54.149Z,15.13
2022-12-25T14:12:21.556Z,15.14
2022-12-25T14:14:49.322Z,14.99
2022-12-25T14:17:15.848Z,15.06
2022-12-25T14:19:42.274Z,15.15
2022-12-25T14:22:18.379Z,15.07
2022-12-25T14:24:44.846Z,14.86
2022-12-25T14:27:22.130Z,14.83
2022-12-25T14:29:49.512Z,14.75
2022-12-25T14:32:22.130Z,14.55
2022-12-25T14:34:51.317Z,14.48
2022-12-25T14:37:20.141Z,14.50
2022-12-25T14:39:54.281Z,14.22
2022-12-25T14:42:22.664Z,14.44
2022-12-25T14:45:04.881Z,14.40
2022-12-25T14:47:35.184Z,14.26
2022-12-25T14:50:01.656Z,14.17
2022-12-25T14:52:37.259Z,14.06
2022-12-25T14:55:05.999Z,14.04
2022-12-25T14:57:38.473Z,13.87
2022-12-25T15:00:05.223Z,13.82
2022-12-25T15:02:37.739Z,13.88
2022-12-25T15:05:04.770Z,13.75
2022-12-25T15:07:31.677Z,13.73
2022-12-25T15:10:27.042Z,13.72
2022-12-25T15:12:44.688Z,13.62
2022-12-25T15:15:11.118Z,13.69
2022-12-25T15:17:38.154Z,13.54
2022-12-25T15:20:05.418Z,13.57
2022-12-25T15:22:54.058Z,13.51
2022-12-25T15:25:20.908Z,13.49
2022-12-25T15:27:47.935Z,13.29
2022-12-25T15:30:17.237Z,13.26
2022-12-25T15:32:43.689Z,13.46
2022-12-25T15:35:18.694Z,13.34
2022-12-25T15:37:45.164Z,13.32
2022-12-25T15:40:12.412Z,13.33
2022-12-25T15:42:39.098Z,13.33
2022-12-25T15:45:06.334Z,13.19
2022-12-25T15:47:32.768Z,13.21
2022-12-25T15:49:59.138Z,13.18
2022-12-25T15:52:25.756Z,13.15
2022-12-25T15:54:54.112Z,13.17
2022-12-25T15:57:21.968Z,13.17
2022-12-25T15:59:48.510Z,13.26
2022-12-25T16:02:16.843Z,13.14
2022-12-25T16:04:43.672Z,12.94
2022-12-25T16:07:19.220Z,12.83
2022-12-25T16:09:45.703Z,13.04
2022-12-25T16:12:12.148Z,12.82
2022-12-25T16:14:38.544Z,12.61
2022-12-25T16:17:05.249Z,12.34
2022-12-25T16:19:31.723Z,12.41
2022-12-25T16:21:58.101Z,12.29
2022-12-25T16:24:24.527Z,12.28
2022-12-25T16:26:50.929Z,12.11
2022-12-25T16:29:17.337Z,12.09
2022-12-25T16:31:43.837Z,11.96
2022-12-25T16:34:10.524Z,12.03
2022-12-25T16:36:36.959Z,11.90
2022-12-25T16:39:04.146Z,12.04
2022-12-25T16:41:30.805Z,12.07
2022-12-25T16:43:57.215Z,12.07
2022-12-25T16:46:23.755Z,11.90
2022-12-25T16:48:50.373Z,11.68
2022-12-25T16:51:20.604Z,11.68
2022-12-25T16:53:47.172Z,11.68
2022-12-25T16:56:14.924Z,11.66
2022-12-25T16:58:42.164Z,11.76
2022-12-25T17:01:13.456Z,11.65
2022-12-25T17:03:39.983Z,11.54
2022-12-25T17:06:16.611Z,11.61
2022-12-25T17:08:43.499Z,11.66
2022-12-25T17:11:09.983Z,11.66
2022-12-25T17:13:36.410Z,11.70
2022-12-25T17:16:16.331Z,11.61
2022-12-25T17:18:42.846Z,11.77
2022-12-25T17:21:09.348Z,11.57
2022-12-25T17:23:39.033Z,11.49
2022-12-25T17:26:06.044Z,11.59
2022-12-25T17:28:33.997Z,11.62
2022-12-25T17:31:03.955Z,11.65
2022-12-25T17:33:30.569Z,11.55
2022-12-25T17:36:03.902Z,11.39
2022-12-25T17:38:31.605Z,11.47
2022-12-25T17:40:58.963Z,11.56
2022-12-25T17:43:26.122Z,11.68
2022-12-25T17:45:52.697Z,11.49
2022-12-25T17:48:19.221Z,11.74
2022-12-25T17:50:45.678Z,11.70
2022-12-25T17:53:12.185Z,11.59
2022-12-25T17:55:40.448Z,11.59
2022-12-25T17:58:07.796Z,11.68
2022-12-25T18:00:34.436Z,11.83
2022-12-25T18:03:11.641Z,11.69
2022-12-25T18:05:38.797Z,11.76
2022-12-25T18:08:05.317Z,11.71
2022-12-25T18:10:37.441Z,11.70
2022-12-25T18:13:04.209Z,11.68
2022-12-25T18:15:30.683Z,11.88
2022-12-25T18:17:57.069Z,11.86
2022-12-25T18:20:23.549Z,11.73
2022-12-25T18:22:52.988Z,11.69
2022-12-25T18:25:19.427Z,11.53
2022-12-25T18:27:45.884Z,11.35
2022-12-25T18:30:12.821Z,11.34
2022-12-25T18:32:39.321Z,11.36
2022-12-25T18:35:05.911Z,11.39
2022-12-25T18:37:39.394Z,11.51
2022-12-25T18:40:09.588Z,11.41
2022-12-25T18:42:39.275Z,11.29
2022-12-25T18:45:06.957Z,11.33
2022-12-25T18:47:33.594Z,11.20
2022-12-25T18:50:00.867Z,11.26
2022-12-25T18:52:49.767Z,11.30
2022-12-25T18:55:13.804Z,11.29
2022-12-25T18:57:40.874Z,11.39
2022-12-25T19:00:07.861Z,11.31
2022-12-25T19:02:34.329Z,11.25
2022-12-25T19:05:00.831Z,11.16
2022-12-25T19:07:27.252Z,11.29
2022-12-25T19:09:53.875Z,11.11
2022-12-25T19:12:20.353Z,11.10
2022-12-25T19:14:48.239Z,11.19
2022-12-25T19:17:15.250Z,11.17
2022-12-25T19:19:41.700Z,11.14
2022-12-25T19:22:08.366Z,11.11
2022-12-25T19:24:35.666Z,11.00
2022-12-25T19:27:02.069Z,11.04
2022-12-25T19:29:28.569Z,11.10
2022-12-25T19:31:55.600Z,11.00
2022-12-25T19:34:22.306Z,10.99
2022-12-25T19:36:48.707Z,11.10
2022-12-25T19:39:15.310Z,10.98
2022-12-25T19:41:41.702Z,10.95
2022-12-25T19:44:08.634Z,10.97
2022-12-25T19:46:36.453Z,10.97
2022-12-25T19:49:04.402Z,11.00
2022-12-25T19:51:33.134Z,10.97
2022-12-25T19:54:00.710Z,10.93
2022-12-25T19:56:30.903Z,11.00
2022-12-25T19:58:57.774Z,10.99
2022-12-25T20:01:25.728Z,10.86
2022-12-25T20:03:52.422Z,10.94
2022-12-25T20:06:22.616Z,10.94
2022-12-25T20:08:50.104Z,10.95
2022-12-25T20:11:17.212Z,11.04
2022-12-25T20:13:43.729Z,10.96
2022-12-25T20:16:10.499Z,10.88
2022-12-25T20:18:37.889Z,10.99
2022-12-25T20:21:06.646Z,10.89
2022-12-25T20:23:36.069Z,11.10
2022-12-25T20:26:04.806Z,11.31
2022-12-25T20:28:32.315Z,11.30
2022-12-25T20:30:58.824Z,11.34
2022-12-25T20:33:25.203Z,11.29
2022-12-25T20:35:51.661Z,11.25
2022-12-25T20:38:18.067Z,11.29
2022-12-25T20:41:24.517Z,11.29
2022-12-25T20:43:31.529Z,11.32
2022-12-25T20:45:58.072Z,11.25
2022-12-25T20:48:24.968Z,11.32
2022-12-25T20:50:51.940Z,11.25
2022-12-25T20:53:18.949Z,11.20
2022-12-25T20:55:49.543Z,11.21
2022-12-25T20:58:16.818Z,11.20
2022-12-25T21:00:44.132Z,11.22
2022-12-25T21:03:10.971Z,11.23
2022-12-25T21:05:49.674Z,11.35
2022-12-25T21:08:17.159Z,11.21
2022-12-25T21:10:45.177Z,11.13
2022-12-25T21:13:11.552Z,11.14
2022-12-25T21:15:42.808Z,11.05
2022-12-25T21:18:09.224Z,11.10
2022-12-25T21:20:35.688Z,11.07
2022-12-25T21:23:02.086Z,11.09
2022-12-25T21:25:28.553Z,11.16
2022-12-25T21:27:54.961Z,10.89
2022-12-25T21:30:21.536Z,10.98
2022-12-25T21:33:06.825Z,10.76
2022-12-25T21:35:35.828Z,11.01
2022-12-25T21:38:02.242Z,10.88
2022-12-25T21:40:31.096Z,11.03
2022-12-25T21:42:57.663Z,10.95
2022-12-25T21:45:24.140Z,10.98
2022-12-25T21:48:01.535Z,11.02
2022-12-25T21:50:47.829Z,11.09
2022-12-25T21:53:16.791Z,11.13
2022-12-25T21:55:43.549Z,11.13
2022-12-25T21:58:10.008Z,10.57
2022-12-25T22:00:36.463Z,10.74
2022-12-25T22:03:02.984Z,11.04
2022-12-25T22:05:48.249Z,11.03
2022-12-25T22:08:14.732Z,11.14
2022-12-25T22:10:41.169Z,11.12
2022-12-25T22:13:27.656Z,11.04
2022-12-25T22:16:20.595Z,10.80
2022-12-25T22:19:05.752Z,10.67
2022-12-25T22:21:32.196Z,10.95
2022-12-25T22:23:58.572Z,10.89
2022-12-25T22:26:24.946Z,10.58
2022-12-25T22:28:51.309Z,10.04
2022-12-25T22:31:17.728Z,9.89
2022-12-25T22:33:44.171Z,9.81
2022-12-25T22:36:10.576Z,9.87
2022-12-25T22:38:36.973Z,9.96
2022-12-25T22:41:06.539Z,9.93
2022-12-25T22:44:14.331Z,9.85
2022-12-25T22:46:19.412Z,9.95
2022-12-25T22:48:45.844Z,9.83
2022-12-25T22:51:12.828Z,10.16
2022-12-25T22:53:39.227Z,9.89
2022-12-25T22:56:08.098Z,10.48
2022-12-25T22:58:35.873Z,10.66
2022-12-25T23:01:02.328Z,10.64
2022-12-25T23:03:29.040Z,10.54
2022-12-25T23:05:56.470Z,10.72
2022-12-25T23:08:24.071Z,10.57
2022-12-25T23:10:50.646Z,10.32
2022-12-25T23:13:36.454Z,10.46
2022-12-25T23:16:03.061Z,10.59
2022-12-25T23:18:48.303Z,10.66
2022-12-25T23:21:33.889Z,10.77
2022-12-25T23:24:19.129Z,10.71
2022-12-25T23:26:45.873Z,10.71
2022-12-25T23:29:31.208Z,10.58
2022-12-25T23:31:58.235Z,10.63
2022-12-25T23:34:25.158Z,10.70
2022-12-25T23:36:51.588Z,10.51
2022-12-25T23:39:17.996Z,10.67
2022-12-25T23:41:44.451Z,10.63
2022-12-25T23:44:11.702Z,10.47
2022-12-25T23:46:38.711Z,10.58
2022-12-25T23:49:05.846Z,10.49
2022-12-25T23:51:32.270Z,10.47
2022-12-25T23:53:58.679Z,10.57
2022-12-25T23:56:25.298Z,10.44
2022-12-25T23:58:51.998Z,10.39
